Time;durP1;ratioP1;P1;durP2;ratioP2;P2;SDS_P1;SDS_P2;PMS_P1;PMS_P2;Temp;Humidity;BMP_temperature;BMP_pressure;BME280_temperature;BME280_humidity;BME280_pressure;Samples;Min_cycle;Max_cycle;Signal;HPM_P1;HPM_P2
2023/08/30 00:15:18;;;;;;;23.40;20.02;;;21.70;99.90;;;;;;4580171;19;20051;-76
2023/08/30 00:16:53;;;;;;;22.90;20.45;;;21.70;99.90;;;;;;4596592;19;20437;-76
2023/08/30 00:18:28;;;;;;;22.05;19.75;;;21.70;99.90;;;;;;4596414;19;20073;-76
2023/08/30 00:20:02;;;;;;;22.48;20.17;;;21.70;99.90;;;;;;4596389;19;20007;-76
2023/08/30 00:21:37;;;;;;;22.75;19.00;;;21.70;99.90;;;;;;4596439;19;20010;-76
2023/08/30 00:23:11;;;;;;;21.63;19.35;;;21.70;99.90;;;;;;4596540;19;20006;-76
2023/08/30 00:24:48;;;;;;;23.98;20.55;;;21.70;99.90;;;;;;4595437;19;20425;-76
2023/08/30 00:26:24;;;;;;;22.25;19.92;;;21.70;99.90;;;;;;4596300;19;20312;-76
2023/08/30 00:27:59;;;;;;;23.25;20.38;;;21.60;99.90;;;;;;4596209;19;19998;-76
2023/08/30 00:29:35;;;;;;;21.88;19.48;;;21.60;99.90;;;;;;4596153;19;20025;-76
2023/08/30 00:31:11;;;;;;;23.85;20.42;;;21.70;99.90;;;;;;4596222;19;20455;-76
2023/08/30 00:32:45;;;;;;;22.88;20.35;;;21.70;99.90;;;;;;4595542;19;20002;-76
2023/08/30 00:34:19;;;;;;;23.95;21.13;;;21.60;99.90;;;;;;4595811;19;20003;-76
2023/08/30 00:36:00;;;;;;;24.10;21.27;;;21.60;99.90;;;;;;4596013;19;20002;-76
2023/08/30 00:37:34;;;;;;;23.38;20.63;;;21.60;99.90;;;;;;4595976;19;19999;-76
2023/08/30 00:39:08;;;;;;;23.90;20.52;;;21.60;99.90;;;;;;4596209;19;20003;-76
2023/08/30 00:40:43;;;;;;;23.00;20.50;;;21.60;99.90;;;;;;4596004;19;20011;-76
2023/08/30 00:42:17;;;;;;;22.83;20.50;;;21.60;99.90;;;;;;4595915;19;20022;-76
2023/08/30 00:43:51;;;;;;;21.40;19.17;;;21.60;99.90;;;;;;4596133;19;19999;-76
2023/08/30 00:45:27;;;;;;;22.23;19.83;;;21.60;99.90;;;;;;4594420;19;20314;-76
2023/08/30 00:47:03;;;;;;;22.73;20.20;;;21.60;99.90;;;;;;4595785;19;20035;-76
2023/08/30 00:48:38;;;;;;;23.48;20.15;;;21.60;99.90;;;;;;4594788;19;20065;-76
2023/08/30 00:50:13;;;;;;;23.95;21.25;;;21.60;99.90;;;;;;4595647;19;20441;-76
2023/08/30 00:51:47;;;;;;;23.63;21.17;;;21.60;99.90;;;;;;4594348;19;20461;-76
2023/08/30 00:53:22;;;;;;;23.25;20.75;;;21.60;99.90;;;;;;4593899;19;20006;-76
2023/08/30 00:54:57;;;;;;;24.85;21.73;;;21.60;99.90;;;;;;4594786;19;20029;-76
2023/08/30 00:56:31;;;;;;;23.10;20.70;;;21.60;99.90;;;;;;4595873;19;20441;-76
2023/08/30 00:58:05;;;;;;;23.83;20.42;;;21.60;99.90;;;;;;4594198;19;20052;-76
2023/08/30 00:59:40;;;;;;;27.88;22.08;;;21.60;99.90;;;;;;4595135;19;20006;-76
2023/08/30 01:01:15;;;;;;;25.23;22.63;;;21.60;99.90;;;;;;4595469;19;19999;-76
2023/08/30 01:02:49;;;;;;;24.55;21.30;;;21.60;99.90;;;;;;4595699;19;20019;-76
2023/08/30 01:04:27;;;;;;;24.25;21.58;;;21.60;99.90;;;;;;4595128;19;20329;-76
2023/08/30 01:06:01;;;;;;;26.35;22.10;;;21.60;99.90;;;;;;4594157;19;20005;-76
2023/08/30 01:07:34;;;;;;;24.60;21.60;;;21.60;99.90;;;;;;4595057;19;19999;-76
2023/08/30 01:09:09;;;;;;;23.75;20.85;;;21.60;99.90;;;;;;4595655;19;20318;-76
2023/08/30 01:11:10;;;;;;;24.35;21.27;;;21.60;99.90;;;;;;4593770;19;20025;-76
2023/08/30 01:12:47;;;;;;;24.52;21.73;;;21.60;99.90;;;;;;4593367;19;20029;-76
2023/08/30 01:14:26;;;;;;;24.40;21.23;;;21.60;99.90;;;;;;4593307;19;20007;-76
2023/08/30 01:16:01;;;;;;;24.42;21.23;;;21.60;99.90;;;;;;4594220;19;20006;-76
2023/08/30 01:17:35;;;;;;;24.35;20.27;;;21.60;99.90;;;;;;4593726;19;20011;-76
2023/08/30 01:19:31;;;;;;;22.33;19.95;;;21.60;99.90;;;;;;4595060;19;20363;-76
2023/08/30 01:21:06;;;;;;;22.42;20.05;;;21.60;99.90;;;;;;4595098;19;20003;-76
2023/08/30 01:22:56;;;;;;;23.15;20.65;;;21.60;99.90;;;;;;4595100;19;20021;-76
2023/08/30 01:24:37;;;;;;;22.25;19.30;;;21.50;99.90;;;;;;4593297;19;20298;-76
2023/08/30 01:26:42;;;;;;;22.52;19.48;;;21.60;99.90;;;;;;4593450;19;20011;-76
2023/08/30 01:28:16;;;;;;;22.08;18.83;;;21.60;99.90;;;;;;4595262;19;20039;-76
2023/08/30 01:29:51;;;;;;;22.85;18.88;;;21.50;99.90;;;;;;4594965;19;20017;-76
2023/08/30 01:31:25;;;;;;;22.50;18.83;;;21.50;99.90;;;;;;4594895;19;20011;-76
2023/08/30 01:33:01;;;;;;;20.52;18.17;;;21.50;99.90;;;;;;4594291;19;19999;-76
2023/08/30 01:34:40;;;;;;;19.88;17.65;;;21.50;99.90;;;;;;4593189;19;20418;-76
2023/08/30 01:36:14;;;;;;;18.52;16.52;;;21.50;99.90;;;;;;4594699;19;20014;-76
2023/08/30 01:37:48;;;;;;;20.67;18.42;;;21.50;99.90;;;;;;4594677;19;20007;-76
2023/08/30 01:39:23;;;;;;;18.85;16.90;;;21.50;99.90;;;;;;4594636;19;20002;-76
2023/08/30 01:40:58;;;;;;;20.33;17.27;;;21.50;99.90;;;;;;4594651;19;20013;-76
2023/08/30 01:42:32;;;;;;;19.55;16.85;;;21.50;99.90;;;;;;4593348;19;20434;-76
2023/08/30 01:44:07;;;;;;;19.65;17.23;;;21.50;99.90;;;;;;4593646;19;20002;-76
2023/08/30 01:45:45;;;;;;;20.35;17.67;;;21.50;99.90;;;;;;4594478;19;20450;-76
2023/08/30 01:47:19;;;;;;;19.17;17.20;;;21.50;99.90;;;;;;4593521;19;20018;-76
2023/08/30 01:48:54;;;;;;;20.67;17.75;;;21.50;99.90;;;;;;4593248;19;20011;-76
2023/08/30 01:50:28;;;;;;;20.42;17.13;;;21.50;99.90;;;;;;4594106;19;20040;-76
2023/08/30 01:52:02;;;;;;;20.38;17.98;;;21.60;99.90;;;;;;4594700;19;20438;-76
2023/08/30 01:53:37;;;;;;;22.98;17.83;;;21.50;99.90;;;;;;4593129;19;20010;-76
2023/08/30 01:55:11;;;;;;;22.83;18.30;;;21.50;99.90;;;;;;4593313;19;20007;-76
2023/08/30 01:56:45;;;;;;;20.60;16.60;;;21.50;99.90;;;;;;4593298;19;20062;-76
2023/08/30 01:58:20;;;;;;;19.38;16.65;;;21.50;99.90;;;;;;4594034;19;20448;-76
2023/08/30 01:59:55;;;;;;;21.48;17.77;;;21.50;99.90;;;;;;4592923;19;20009;-76
2023/08/30 02:01:28;;;;;;;18.65;15.10;;;21.50;99.90;;;;;;4594189;19;20012;-76
2023/08/30 02:03:11;;;;;;;20.92;16.27;;;21.50;99.90;;;;;;4594225;19;20022;-76
2023/08/30 02:04:45;;;;;;;18.10;15.32;;;21.50;99.90;;;;;;4593513;19;20041;-76
2023/08/30 02:06:27;;;;;;;17.88;14.90;;;21.50;99.90;;;;;;4594124;19;20002;-76
2023/08/30 02:08:13;;;;;;;17.58;14.75;;;21.50;99.90;;;;;;4592966;19;20090;-76
2023/08/30 02:09:50;;;;;;;19.40;15.43;;;21.50;99.90;;;;;;4592950;19;19999;-76
2023/08/30 02:11:27;;;;;;;19.38;15.80;;;21.50;99.90;;;;;;4592779;19;20011;-76
2023/08/30 02:13:03;;;;;;;17.65;14.80;;;21.50;99.90;;;;;;4592013;19;20025;-76
2023/08/30 02:14:39;;;;;;;18.33;15.02;;;21.50;99.90;;;;;;4593073;19;20370;-76
2023/08/30 02:16:13;;;;;;;17.10;14.40;;;21.50;99.90;;;;;;4592692;19;20054;-76
2023/08/30 02:17:49;;;;;;;20.77;16.25;;;21.50;99.90;;;;;;4592695;19;20035;-76
2023/08/30 02:19:24;;;;;;;18.60;15.25;;;21.50;99.90;;;;;;4592520;19;20002;-76
2023/08/30 02:20:58;;;;;;;19.83;16.15;;;21.50;99.90;;;;;;4593795;19;20413;-76
2023/08/30 02:22:33;;;;;;;20.58;15.07;;;21.40;99.90;;;;;;4592000;19;20006;-76
2023/08/30 02:24:08;;;;;;;19.40;15.43;;;21.40;99.90;;;;;;4593721;19;20069;-76
2023/08/30 02:25:44;;;;;;;20.33;15.55;;;21.50;99.90;;;;;;4592452;19;20030;-76
2023/08/30 02:27:20;;;;;;;20.55;14.45;;;21.40;99.90;;;;;;4592477;19;20010;-76
2023/08/30 02:28:54;;;;;;;20.20;15.68;;;21.40;99.90;;;;;;4592683;19;19998;-76
2023/08/30 02:30:28;;;;;;;19.75;15.73;;;21.40;99.90;;;;;;4593335;19;20101;-76
2023/08/30 02:32:03;;;;;;;20.25;15.23;;;21.50;99.90;;;;;;4592652;19;20006;-76
2023/08/30 02:33:40;;;;;;;21.63;15.57;;;21.40;99.90;;;;;;4592400;19;20318;-76
2023/08/30 02:35:14;;;;;;;18.75;15.00;;;21.40;99.90;;;;;;4592650;19;20010;-76
2023/08/30 02:36:49;;;;;;;19.08;15.55;;;21.50;99.90;;;;;;4593808;19;20010;-76
2023/08/30 02:38:23;;;;;;;18.55;15.57;;;21.50;99.90;;;;;;4593464;19;20027;-76
2023/08/30 02:39:57;;;;;;;19.38;15.93;;;21.40;99.90;;;;;;4593732;19;19998;-76
2023/08/30 02:41:33;;;;;;;21.08;15.18;;;21.40;99.90;;;;;;4593487;19;20029;-76
2023/08/30 02:43:07;;;;;;;23.95;16.08;;;21.40;99.90;;;;;;4593395;19;20003;-76
2023/08/30 02:44:41;;;;;;;20.40;14.60;;;21.50;99.90;;;;;;4591484;19;20081;-76
2023/08/30 02:46:17;;;;;;;20.83;15.48;;;21.40;99.90;;;;;;4593076;19;20010;-76
2023/08/30 02:47:51;;;;;;;19.98;15.13;;;21.40;99.90;;;;;;4593521;19;20043;-76
2023/08/30 02:49:26;;;;;;;21.67;16.65;;;21.40;99.90;;;;;;4592229;19;20025;-76
2023/08/30 02:51:02;;;;;;;18.73;15.32;;;21.40;99.90;;;;;;4593030;19;19999;-76
2023/08/30 02:52:35;;;;;;;18.85;14.95;;;21.40;99.90;;;;;;4591870;19;20021;-76
2023/08/30 02:54:09;;;;;;;19.77;15.93;;;21.50;99.90;;;;;;4593119;19;20003;-76
2023/08/30 02:55:44;;;;;;;20.40;15.10;;;21.40;99.90;;;;;;4593514;19;20145;-76
2023/08/30 02:57:18;;;;;;;19.23;16.08;;;21.50;99.90;;;;;;4592041;19;20011;-76
2023/08/30 02:58:52;;;;;;;19.40;15.43;;;21.40;99.90;;;;;;4592940;19;20002;-76
2023/08/30 03:00:27;;;;;;;20.17;15.50;;;21.40;99.90;;;;;;4593367;19;20022;-76
2023/08/30 03:02:01;;;;;;;17.65;14.25;;;21.40;99.90;;;;;;4593057;19;20017;-76
2023/08/30 03:03:35;;;;;;;19.27;15.23;;;21.40;99.90;;;;;;4592910;19;20002;-76
2023/08/30 03:05:12;;;;;;;17.90;14.73;;;21.40;99.90;;;;;;4592225;19;20298;-76
2023/08/30 03:06:45;;;;;;;19.27;15.10;;;21.40;99.90;;;;;;4592932;19;20298;-76
2023/08/30 03:08:20;;;;;;;21.58;14.13;;;21.40;99.90;;;;;;4592868;19;19998;-76
2023/08/30 03:09:55;;;;;;;17.10;13.80;;;21.40;99.90;;;;;;4592974;19;20006;-76
2023/08/30 03:11:29;;;;;;;17.73;14.35;;;21.40;99.90;;;;;;4593083;19;20357;-76
2023/08/30 03:13:03;;;;;;;18.48;14.95;;;21.40;99.90;;;;;;4592246;19;20003;-76
2023/08/30 03:14:39;;;;;;;18.90;13.80;;;21.40;99.90;;;;;;4590733;19;20045;-76
2023/08/30 03:16:16;;;;;;;16.85;14.52;;;21.40;99.90;;;;;;4592649;19;20006;-76
2023/08/30 03:17:50;;;;;;;18.58;14.20;;;21.40;99.90;;;;;;4592853;19;20023;-76
2023/08/30 03:19:25;;;;;;;17.33;13.73;;;21.40;99.90;;;;;;4592762;19;20295;-76
2023/08/30 03:21:03;;;;;;;17.23;14.07;;;21.40;99.90;;;;;;4592732;19;20003;-76
2023/08/30 03:22:37;;;;;;;17.33;12.95;;;21.40;99.90;;;;;;4591523;19;20007;-76
2023/08/30 03:24:13;;;;;;;21.08;16.30;;;21.40;99.90;;;;;;4592348;19;20070;-76
2023/08/30 03:25:47;;;;;;;20.88;14.40;;;21.40;99.90;;;;;;4592575;19;20007;-76
2023/08/30 03:27:22;;;;;;;19.08;15.20;;;21.40;99.90;;;;;;4592476;19;20489;-76
2023/08/30 03:28:58;;;;;;;17.17;13.75;;;21.40;99.90;;;;;;4592760;19;20006;-76
2023/08/30 03:30:32;;;;;;;19.67;14.73;;;21.40;99.90;;;;;;4592446;19;20003;-76
2023/08/30 03:32:06;;;;;;;18.23;14.57;;;21.40;99.90;;;;;;4592388;19;20002;-76
2023/08/30 03:33:44;;;;;;;19.35;15.65;;;21.40;99.90;;;;;;4588961;19;20010;-76
2023/08/30 03:35:20;;;;;;;19.92;14.98;;;21.40;99.90;;;;;;4591199;19;20010;-76
2023/08/30 03:36:56;;;;;;;20.08;16.10;;;21.40;99.90;;;;;;4592341;19;20010;-76
2023/08/30 03:38:31;;;;;;;20.20;15.80;;;21.40;99.90;;;;;;4592658;19;20013;-76
2023/08/30 03:40:06;;;;;;;17.83;14.48;;;21.40;99.90;;;;;;4590831;19;20002;-76
2023/08/30 03:41:40;;;;;;;18.80;15.10;;;21.40;99.90;;;;;;4591893;19;20002;-76
2023/08/30 03:43:20;;;;;;;20.85;16.08;;;21.40;99.90;;;;;;4589852;19;20488;-76
2023/08/30 03:44:53;;;;;;;21.05;15.40;;;21.40;99.90;;;;;;4591256;19;20006;-76
2023/08/30 03:46:27;;;;;;;19.70;15.88;;;21.40;99.90;;;;;;4592144;19;20026;-77
2023/08/30 03:48:04;;;;;;;19.42;15.15;;;21.40;99.90;;;;;;4592905;19;20458;-76
2023/08/30 03:49:37;;;;;;;19.27;15.00;;;21.40;99.90;;;;;;4592046;19;20062;-77
2023/08/30 03:51:12;;;;;;;18.83;15.65;;;21.50;99.90;;;;;;4590712;19;20002;-77
2023/08/30 03:52:48;;;;;;;19.45;16.73;;;21.50;99.90;;;;;;4591323;19;20023;-76
2023/08/30 03:54:21;;;;;;;20.98;16.92;;;21.60;99.90;;;;;;4591740;19;19998;-77
2023/08/30 03:55:55;;;;;;;17.42;14.48;;;21.70;99.90;;;;;;4591971;19;20003;-77
2023/08/30 03:57:32;;;;;;;20.45;15.88;;;21.80;99.90;;;;;;4592057;19;20014;-76
2023/08/30 03:59:06;;;;;;;19.13;15.02;;;21.80;99.90;;;;;;4592242;19;19999;-77
2023/08/30 04:00:41;;;;;;;20.13;16.35;;;21.90;99.90;;;;;;4592005;19;20054;-77
2023/08/30 04:02:16;;;;;;;18.25;15.50;;;21.90;99.90;;;;;;4590756;19;20101;-76
2023/08/30 04:03:53;;;;;;;18.25;15.75;;;21.90;99.90;;;;;;4591569;19;19999;-76
2023/08/30 04:05:27;;;;;;;18.75;16.27;;;22.00;99.90;;;;;;4590832;19;20018;-76
2023/08/30 04:07:02;;;;;;;17.10;14.82;;;22.00;99.90;;;;;;4592062;19;20002;-76
2023/08/30 04:08:36;;;;;;;18.15;14.63;;;22.10;99.90;;;;;;4591907;19;20013;-77
2023/08/30 04:10:10;;;;;;;19.95;15.05;;;22.10;99.90;;;;;;4591662;19;20008;-77
2023/08/30 04:11:47;;;;;;;17.95;15.52;;;22.10;99.90;;;;;;4592038;19;20006;-76
2023/08/30 04:13:22;;;;;;;19.40;16.00;;;22.10;99.90;;;;;;4590886;19;20009;-76
2023/08/30 04:14:56;;;;;;;20.30;15.55;;;22.10;99.90;;;;;;4589299;19;20433;-78
2023/08/30 04:16:31;;;;;;;19.15;15.85;;;22.10;99.90;;;;;;4590694;19;20010;-77
2023/08/30 04:18:05;;;;;;;18.30;15.55;;;22.10;99.90;;;;;;4591304;19;20456;-76
2023/08/30 04:19:39;;;;;;;19.42;15.43;;;22.10;99.90;;;;;;4590294;19;20082;-77
2023/08/30 04:21:16;;;;;;;19.63;15.57;;;22.10;99.90;;;;;;4591129;19;20007;-77
2023/08/30 04:22:50;;;;;;;17.83;15.10;;;22.10;99.90;;;;;;4591518;19;20006;-77
2023/08/30 04:24:25;;;;;;;20.40;18.30;;;22.00;99.90;;;;;;4591231;19;20003;-76
2023/08/30 04:26:00;;;;;;;22.85;20.52;;;20.00;99.90;;;;;;4592238;19;20032;-77
2023/08/30 04:27:34;;;;;;;23.85;20.67;;;19.00;99.90;;;;;;4591622;19;20009;-75
2023/08/30 04:29:09;;;;;;;25.42;20.67;;;18.60;99.90;;;;;;4591829;19;20002;-76
2023/08/30 04:30:44;;;;;;;25.48;21.00;;;18.40;99.90;;;;;;4590501;19;20006;-76
2023/08/30 04:32:18;;;;;;;26.30;22.10;;;18.40;99.90;;;;;;4591480;19;20021;-76
2023/08/30 04:33:55;;;;;;;24.92;21.30;;;18.30;99.90;;;;;;4589965;19;20026;-77
2023/08/30 04:35:31;;;;;;;24.08;20.25;;;18.20;99.90;;;;;;4590293;19;20078;-76
2023/08/30 04:37:06;;;;;;;23.70;20.88;;;18.20;99.90;;;;;;4591567;19;20432;-76
2023/08/30 04:38:40;;;;;;;25.23;21.50;;;18.20;99.90;;;;;;4591310;19;20308;-76
2023/08/30 04:40:17;;;;;;;28.15;21.27;;;18.20;99.90;;;;;;4590099;19;20013;-76
2023/08/30 04:41:52;;;;;;;28.60;22.42;;;18.20;99.90;;;;;;4591028;19;20010;-76
2023/08/30 04:43:26;;;;;;;26.08;21.45;;;18.20;99.90;;;;;;4591540;19;20014;-76
2023/08/30 04:45:01;;;;;;;26.30;21.02;;;18.20;99.90;;;;;;4591012;19;20211;-76
2023/08/30 04:46:37;;;;;;;25.65;20.80;;;18.20;99.90;;;;;;4594814;19;20003;-76
2023/08/30 04:48:11;;;;;;;25.73;20.90;;;18.20;99.90;;;;;;4594754;19;20003;-76
2023/08/30 04:49:50;;;;;;;25.23;22.15;;;18.20;99.90;;;;;;4595615;19;20018;-76
2023/08/30 04:51:24;;;;;;;27.55;23.02;;;18.20;99.90;;;;;;4594626;19;20006;-76
2023/08/30 04:52:58;;;;;;;27.00;22.75;;;18.20;99.90;;;;;;4593537;19;20006;-76
2023/08/30 04:54:33;;;;;;;27.60;22.75;;;18.20;99.90;;;;;;4595068;19;20019;-76
2023/08/30 04:56:14;;;;;;;26.67;23.35;;;18.20;99.90;;;;;;4594201;19;20003;-77
2023/08/30 04:57:47;;;;;;;25.27;21.25;;;18.20;99.90;;;;;;4595240;19;20498;-76
2023/08/30 04:59:23;;;;;;;25.25;20.95;;;18.20;99.90;;;;;;4594904;19;20009;-76
2023/08/30 05:00:58;;;;;;;24.80;21.10;;;18.20;99.90;;;;;;4595435;19;20432;-76
2023/08/30 05:02:32;;;;;;;26.15;22.13;;;18.20;99.90;;;;;;4594356;19;20066;-76
2023/08/30 05:04:07;;;;;;;25.75;21.23;;;18.20;99.90;;;;;;4595228;19;20006;-76
2023/08/30 05:05:46;;;;;;;26.90;21.55;;;18.20;99.90;;;;;;4593964;19;20082;-76
2023/08/30 05:07:20;;;;;;;24.70;21.10;;;18.20;99.90;;;;;;4595120;19;20026;-76
2023/08/30 05:08:58;;;;;;;25.73;21.48;;;18.20;99.90;;;;;;4595316;19;20299;-76
2023/08/30 05:10:32;;;;;;;25.20;21.40;;;18.20;99.90;;;;;;4595298;19;20029;-76
2023/08/30 05:12:06;;;;;;;23.98;20.55;;;18.20;99.90;;;;;;4593645;19;20007;-77
2023/08/30 05:13:42;;;;;;;24.58;20.95;;;18.20;99.90;;;;;;4592569;19;20013;-76
2023/08/30 05:15:16;;;;;;;25.67;21.52;;;18.20;99.90;;;;;;4593348;19;20025;-76
2023/08/30 05:16:50;;;;;;;23.77;19.60;;;18.20;99.90;;;;;;4595149;19;20025;-76
2023/08/30 05:18:25;;;;;;;23.55;20.33;;;18.20;99.90;;;;;;4594084;19;20031;-76
2023/08/30 05:20:07;;;;;;;24.85;21.42;;;18.10;99.90;;;;;;4594842;19;20009;-76
2023/08/30 05:21:54;;;;;;;26.45;21.33;;;18.20;99.90;;;;;;4593588;19;20010;-76
2023/08/30 05:23:30;;;;;;;25.67;21.25;;;18.20;99.90;;;;;;4593810;19;20022;-76
2023/08/30 05:25:04;;;;;;;24.33;20.33;;;18.20;99.90;;;;;;4593683;19;20020;-76
2023/08/30 05:26:43;;;;;;;23.70;18.98;;;18.10;99.90;;;;;;4594939;19;20007;-76
2023/08/30 05:28:24;;;;;;;23.45;19.67;;;18.20;99.90;;;;;;4594252;19;20011;-77
2023/08/30 05:29:59;;;;;;;22.65;19.42;;;18.10;99.90;;;;;;4595145;19;20002;-76
2023/08/30 05:31:35;;;;;;;25.70;20.50;;;18.20;99.90;;;;;;4593505;19;20005;-76
2023/08/30 05:33:35;;;;;;;24.27;21.08;;;18.20;99.90;;;;;;4592793;19;20013;-76
2023/08/30 05:35:11;;;;;;;24.80;19.65;;;18.20;99.90;;;;;;4592897;19;20409;-76
2023/08/30 05:36:45;;;;;;;23.05;19.20;;;18.20;99.90;;;;;;4592123;19;20006;-76
2023/08/30 05:38:19;;;;;;;24.75;20.23;;;18.20;99.90;;;;;;4592910;19;20007;-76
2023/08/30 05:39:54;;;;;;;23.15;19.58;;;18.20;99.90;;;;;;4593830;19;20002;-76
2023/08/30 05:41:28;;;;;;;21.98;18.65;;;18.20;99.90;;;;;;4593609;19;20045;-77
2023/08/30 05:43:01;;;;;;;21.08;17.30;;;18.20;99.90;;;;;;4593704;19;20009;-76
2023/08/30 05:44:37;;;;;;;19.65;17.30;;;18.30;99.90;;;;;;4593347;19;20011;-76
2023/08/30 05:46:14;;;;;;;23.25;19.10;;;18.20;99.90;;;;;;4594784;19;20418;-77
2023/08/30 05:47:48;;;;;;;21.70;17.65;;;18.20;99.90;;;;;;4594531;19;20501;-76
2023/08/30 05:49:23;;;;;;;20.73;18.48;;;18.20;99.90;;;;;;4593104;19;19999;-76
2023/08/30 05:50:58;;;;;;;20.38;16.98;;;18.30;99.90;;;;;;4593334;19;20330;-76
2023/08/30 05:52:32;;;;;;;19.20;17.15;;;18.20;99.90;;;;;;4593788;19;20429;-76
2023/08/30 05:54:07;;;;;;;20.35;18.13;;;18.20;99.90;;;;;;4594471;19;20014;-76
2023/08/30 05:55:41;;;;;;;23.48;18.85;;;18.30;99.90;;;;;;4594675;19;20014;-76
2023/08/30 05:57:15;;;;;;;19.02;16.42;;;18.30;99.90;;;;;;4592466;19;20417;-77
2023/08/30 05:58:50;;;;;;;19.55;16.48;;;18.30;99.90;;;;;;4594100;19;20066;-77
2023/08/30 06:00:26;;;;;;;18.55;16.52;;;18.30;99.90;;;;;;4594536;19;19999;-76
2023/08/30 06:02:00;;;;;;;18.65;15.82;;;18.30;99.90;;;;;;4594329;19;20076;-79
2023/08/30 06:03:35;;;;;;;18.55;15.13;;;18.30;99.90;;;;;;4594452;19;20003;-80
2023/08/30 06:05:09;;;;;;;18.20;15.68;;;18.40;99.90;;;;;;4591996;19;20003;-79
2023/08/30 06:06:43;;;;;;;16.27;14.05;;;18.30;99.90;;;;;;4592759;19;20010;-76
2023/08/30 06:08:19;;;;;;;18.00;15.75;;;18.30;99.90;;;;;;4594186;19;20014;-77
2023/08/30 06:09:54;;;;;;;15.60;14.00;;;18.30;99.90;;;;;;4594320;19;20010;-79
2023/08/30 06:11:29;;;;;;;15.88;13.30;;;18.40;99.90;;;;;;4592949;19;20006;-79
2023/08/30 06:13:05;;;;;;;17.38;14.95;;;18.40;99.90;;;;;;4593031;19;20037;-78
2023/08/30 06:14:42;;;;;;;15.95;13.80;;;18.40;99.90;;;;;;4591924;19;20014;-80
2023/08/30 06:16:17;;;;;;;16.30;13.63;;;18.40;99.90;;;;;;4592801;19;20023;-78
2023/08/30 06:17:53;;;;;;;18.00;15.68;;;18.40;99.90;;;;;;4593749;19;20301;-81
2023/08/30 06:19:28;;;;;;;17.05;15.18;;;18.40;99.90;;;;;;4593886;19;20010;-78
2023/08/30 06:21:03;;;;;;;16.38;13.18;;;18.40;99.90;;;;;;4592731;19;20007;-78
2023/08/30 06:22:39;;;;;;;15.40;13.63;;;18.40;99.90;;;;;;4592512;19;20010;-78
2023/08/30 06:24:13;;;;;;;15.18;12.73;;;18.40;99.90;;;;;;4593172;19;19999;-78
2023/08/30 06:25:55;;;;;;;14.80;12.73;;;18.40;99.90;;;;;;4593648;19;20002;-76
2023/08/30 06:27:30;;;;;;;14.68;12.18;;;18.40;99.90;;;;;;4592394;19;20010;-78
2023/08/30 06:29:04;;;;;;;15.40;12.65;;;18.40;99.90;;;;;;4593539;19;20306;-78
2023/08/30 06:30:38;;;;;;;13.77;12.25;;;18.40;99.90;;;;;;4592210;19;20002;-78
2023/08/30 06:32:14;;;;;;;15.00;11.98;;;18.50;99.90;;;;;;4593470;19;20021;-78
2023/08/30 06:33:48;;;;;;;12.55;10.35;;;18.40;99.90;;;;;;4592688;19;19998;-78
2023/08/30 06:35:22;;;;;;;12.82;10.75;;;18.40;99.90;;;;;;4592438;19;20006;-78
2023/08/30 06:36:57;;;;;;;13.38;11.98;;;18.40;99.90;;;;;;4593358;19;20010;-78
2023/08/30 06:38:31;;;;;;;14.40;12.65;;;18.50;99.90;;;;;;4593389;19;19999;-78
2023/08/30 06:40:05;;;;;;;12.63;11.25;;;18.50;99.90;;;;;;4593661;19;20002;-77
2023/08/30 06:41:40;;;;;;;14.18;12.48;;;18.50;99.90;;;;;;4592456;19;20006;-77
2023/08/30 06:43:14;;;;;;;13.13;11.30;;;18.50;99.90;;;;;;4593086;19;19998;-77
2023/08/30 06:44:49;;;;;;;12.73;11.43;;;18.40;99.90;;;;;;4592687;19;20006;-77
2023/08/30 06:46:24;;;;;;;12.48;11.18;;;18.50;99.90;;;;;;4592349;19;20163;-77
2023/08/30 06:47:59;;;;;;;10.50;9.20;;;18.50;99.90;;;;;;4593179;19;19999;-77
2023/08/30 06:49:33;;;;;;;10.95;9.45;;;18.40;99.90;;;;;;4593494;19;20015;-77
2023/08/30 06:51:10;;;;;;;11.82;9.73;;;18.40;99.90;;;;;;4593326;19;20021;-77
2023/08/30 06:52:47;;;;;;;11.38;9.65;;;18.40;99.90;;;;;;4593416;19;20025;-77
2023/08/30 06:54:21;;;;;;;11.02;9.82;;;18.40;99.90;;;;;;4591475;19;20014;-77
2023/08/30 06:56:00;;;;;;;11.18;9.32;;;18.40;99.90;;;;;;4593117;19;20421;-77
2023/08/30 06:57:34;;;;;;;16.27;11.35;;;18.40;99.90;;;;;;4592978;19;20018;-78
2023/08/30 06:59:09;;;;;;;10.23;9.02;;;18.40;99.90;;;;;;4593199;19;20433;-77
2023/08/30 07:00:45;;;;;;;11.27;9.45;;;18.40;99.90;;;;;;4591979;19;20019;-77
2023/08/30 07:02:19;;;;;;;12.35;10.45;;;18.40;99.90;;;;;;4592924;19;20035;-77
2023/08/30 07:03:52;;;;;;;10.90;9.27;;;18.40;99.90;;;;;;4592946;19;20448;-77
2023/08/30 07:05:28;;;;;;;12.38;10.48;;;18.40;99.90;;;;;;4591909;19;20010;-77
2023/08/30 07:07:02;;;;;;;11.25;9.68;;;18.40;99.90;;;;;;4593177;19;20022;-77
2023/08/30 07:08:36;;;;;;;11.88;9.68;;;18.40;99.90;;;;;;4591253;19;20003;-77
2023/08/30 07:10:15;;;;;;;10.52;9.13;;;18.40;99.90;;;;;;4591844;19;20002;-77
2023/08/30 07:11:49;;;;;;;10.98;9.30;;;18.40;99.90;;;;;;4592415;19;20006;-77
2023/08/30 07:13:23;;;;;;;11.35;9.82;;;18.40;99.90;;;;;;4591896;19;20006;-77
2023/08/30 07:15:00;;;;;;;11.20;9.45;;;18.40;99.90;;;;;;4591628;19;20010;-78
2023/08/30 07:16:34;;;;;;;10.93;8.95;;;18.40;99.90;;;;;;4590906;19;20007;-77
2023/08/30 07:18:08;;;;;;;10.60;9.07;;;18.40;99.90;;;;;;4591285;19;20299;-77
2023/08/30 07:19:45;;;;;;;9.95;8.20;;;18.40;99.90;;;;;;4591393;19;19998;-75
2023/08/30 07:21:19;;;;;;;10.15;7.72;;;18.40;99.90;;;;;;4591456;19;20006;-75
2023/08/30 07:22:53;;;;;;;9.85;7.78;;;18.40;99.90;;;;;;4592028;19;20016;-75
2023/08/30 07:24:31;;;;;;;10.32;8.27;;;18.30;99.90;;;;;;4592668;19;20023;-75
2023/08/30 07:26:05;;;;;;;8.18;6.68;;;18.40;99.90;;;;;;4592815;19;20002;-76
2023/08/30 07:27:39;;;;;;;7.68;6.57;;;18.30;99.90;;;;;;4590893;19;20006;-75
2023/08/30 07:29:14;;;;;;;8.50;6.82;;;18.30;99.90;;;;;;4591121;19;20010;-75
2023/08/30 07:30:48;;;;;;;8.50;6.55;;;18.40;99.90;;;;;;4591991;19;20029;-75
2023/08/30 07:32:22;;;;;;;6.82;5.82;;;18.40;99.90;;;;;;4591004;19;20015;-75
2023/08/30 07:33:59;;;;;;;7.47;6.03;;;18.40;99.90;;;;;;4591809;19;20309;-76
2023/08/30 07:35:34;;;;;;;6.03;5.35;;;18.40;99.90;;;;;;4591507;19;20425;-76
2023/08/30 07:37:18;;;;;;;8.38;6.45;;;18.40;99.90;;;;;;4591036;19;20310;-75
2023/08/30 07:38:54;;;;;;;6.38;5.30;;;18.40;99.90;;;;;;4590955;19;20306;-75
2023/08/30 07:40:28;;;;;;;6.40;5.30;;;18.40;99.90;;;;;;4591785;19;20033;-74
2023/08/30 07:42:04;;;;;;;6.55;5.38;;;18.40;99.90;;;;;;4591109;19;20002;-75
2023/08/30 07:43:40;;;;;;;6.25;5.50;;;18.50;99.90;;;;;;4591868;19;20378;-77
2023/08/30 07:45:14;;;;;;;7.00;5.57;;;18.50;99.90;;;;;;4593004;19;20070;-76
2023/08/30 07:46:48;;;;;;;6.47;5.22;;;18.60;99.90;;;;;;4591476;19;20039;-76
2023/08/30 07:48:23;;;;;;;6.97;5.55;;;18.60;99.90;;;;;;4591992;19;20082;-76
2023/08/30 07:49:57;;;;;;;5.28;4.28;;;18.60;99.90;;;;;;4592912;19;19999;-76
2023/08/30 07:51:30;;;;;;;5.88;4.20;;;18.70;99.90;;;;;;4592551;19;20069;-76
2023/08/30 07:53:06;;;;;;;4.80;3.45;;;19.00;99.90;;;;;;4591780;19;20058;-76
2023/08/30 07:54:40;;;;;;;6.30;3.97;;;19.10;99.90;;;;;;4591887;19;20013;-79
2023/08/30 07:56:16;;;;;;;5.07;2.72;;;19.40;99.90;;;;;;4596053;19;20006;-78
2023/08/30 07:57:51;;;;;;;5.47;3.55;;;19.50;99.90;;;;;;4592733;19;20028;-78
2023/08/30 07:59:26;;;;;;;5.50;3.67;;;19.70;99.90;;;;;;4594574;19;20002;-79
2023/08/30 08:01:00;;;;;;;7.13;3.10;;;19.80;99.90;;;;;;4593721;19;20002;-78
2023/08/30 08:02:35;;;;;;;5.57;3.45;;;19.90;99.90;;;;;;4591334;19;20021;-78
2023/08/30 08:04:09;;;;;;;3.15;2.65;;;20.10;99.90;;;;;;4594742;19;20002;-79
2023/08/30 08:05:43;;;;;;;4.22;2.30;;;20.10;99.90;;;;;;4591989;19;20006;-76
2023/08/30 08:07:18;;;;;;;3.15;2.50;;;20.20;99.90;;;;;;4592674;19;19999;-77
2023/08/30 08:08:52;;;;;;;3.13;1.90;;;20.30;99.90;;;;;;4592161;19;19998;-77
2023/08/30 08:10:26;;;;;;;4.20;2.80;;;20.40;99.90;;;;;;4592177;19;20007;-78
2023/08/30 08:12:01;;;;;;;3.42;2.60;;;20.40;99.90;;;;;;4592279;19;20317;-79
2023/08/30 08:13:36;;;;;;;3.33;2.50;;;20.50;99.90;;;;;;4591563;19;20014;-77
2023/08/30 08:15:10;;;;;;;5.40;3.28;;;20.60;99.90;;;;;;4590931;19;20030;-77
2023/08/30 08:16:45;;;;;;;7.25;3.85;;;20.60;99.90;;;;;;4591611;19;20019;-77
2023/08/30 08:18:19;;;;;;;5.80;3.60;;;20.70;99.90;;;;;;4591733;19;19998;-77
2023/08/30 08:19:53;;;;;;;5.35;4.00;;;20.70;99.90;;;;;;4594469;19;20307;-77
2023/08/30 08:21:29;;;;;;;5.38;3.70;;;20.80;99.90;;;;;;4596375;19;20002;-77